Time;durP1;ratioP1;P1;durP2;ratioP2;P2;SDS_P1;SDS_P2;PMS_P1;PMS_P2;Temp;Humidity;BMP_temperature;BMP_pressure;BME280_temperature;BME280_humidity;BME280_pressure;Samples;Min_cycle;Max_cycle;Signal;HPM_P1;HPM_P2
2023/07/12 00:01:15;;;;;;;461.42;422.55;;;18.80;99.90;;;;;;6311573;22;20026;-87
2023/07/12 00:03:40;;;;;;;764.20;700.63;;;18.80;99.90;;;;;;6339454;22;20081;-86
2023/07/12 00:06:15;;;;;;;479.63;437.05;;;18.70;99.90;;;;;;6339188;22;20072;-86
2023/07/12 00:08:41;;;;;;;718.47;665.20;;;18.70;99.90;;;;;;6311244;22;20011;-86
2023/07/12 00:11:20;;;;;;;748.33;689.63;;;18.70;99.90;;;;;;6338586;22;20018;-86
2023/07/12 00:13:46;;;;;;;732.47;676.47;;;18.70;99.90;;;;;;6338733;22;20011;-87
2023/07/12 00:16:26;;;;;;;425.38;393.67;;;18.70;99.90;;;;;;6311435;22;20018;-88
2023/07/12 00:18:53;;;;;;;718.72;663.72;;;18.70;99.90;;;;;;6311417;22;20052;-88
2023/07/12 00:21:22;;;;;;;742.65;685.40;;;18.70;99.90;;;;;;6311237;22;20023;-88
2023/07/12 00:23:53;;;;;;;429.90;397.42;;;18.60;99.90;;;;;;6311317;22;20046;-87
2023/07/12 00:26:30;;;;;;;747.17;688.45;;;18.60;99.90;;;;;;6311382;22;20015;-87
2023/07/12 00:28:57;;;;;;;431.02;398.23;;;18.60;99.90;;;;;;6339140;22;20097;-87
2023/07/12 00:31:24;;;;;;;733.00;676.65;;;18.50;99.90;;;;;;6311001;22;20023;-87
2023/07/12 00:33:50;;;;;;;471.30;429.52;;;18.60;99.90;;;;;;6310588;22;20041;-88
2023/07/12 00:36:19;;;;;;;452.85;416.77;;;18.60;99.90;;;;;;6338772;22;20019;-87
2023/07/12 00:38:45;;;;;;;501.17;449.80;;;18.60;99.90;;;;;;6310907;22;20437;-87
2023/07/12 00:41:52;;;;;;;39.33;36.65;;;18.60;99.90;;;;;;6311012;22;20018;-87
2023/07/12 00:44:24;;;;;;;26.73;25.35;;;18.50;99.90;;;;;;6182615;23;20048;-88
2023/07/12 00:46:56;;;;;;;28.85;26.27;;;18.50;99.90;;;;;;6158075;23;20017;-87
2023/07/12 00:49:21;;;;;;;1.02;0.50;;;18.50;99.90;;;;;;6182421;23;20028;-87
2023/07/12 00:52:13;;;;;;;1213.30;706.10;;;18.50;99.90;;;;;;6132754;23;20039;-87
2023/07/12 00:54:55;;;;;;;953.13;555.50;;;18.50;99.90;;;;;;6041339;23;20074;-87
2023/07/12 00:57:26;;;;;;;1331.90;691.58;;;18.40;99.90;;;;;;6065448;23;20030;-86
2023/07/12 00:59:56;;;;;;;1354.20;701.97;;;18.40;99.90;;;;;;6065387;23;20065;-87
2023/07/12 01:02:25;;;;;;;1383.82;605.10;;;18.40;99.90;;;;;;6065516;23;20018;-87
2023/07/12 01:04:55;;;;;;;1192.63;710.05;;;18.40;99.90;;;;;;6065257;23;20018;-87
2023/07/12 01:07:23;;;;;;;1287.43;709.88;;;18.40;99.90;;;;;;6041239;23;20019;-87
2023/07/12 01:09:49;;;;;;;1308.72;695.83;;;18.40;99.90;;;;;;6017914;23;20101;-87
2023/07/12 01:12:15;;;;;;;1305.63;695.25;;;18.40;99.90;;;;;;6041004;23;20408;-86
2023/07/12 01:14:41;;;;;;;1261.95;691.72;;;18.30;99.90;;;;;;6041540;23;20350;-87
2023/07/12 01:17:08;;;;;;;1342.55;609.50;;;18.30;99.90;;;;;;6064982;23;20162;-88
2023/07/12 01:19:35;;;;;;;1353.82;607.75;;;18.30;99.90;;;;;;6071144;23;20019;-88
2023/07/12 01:22:02;;;;;;;1314.03;679.88;;;18.30;99.90;;;;;;6187256;23;20498;-88
2023/07/12 01:24:31;;;;;;;1325.43;699.00;;;18.30;99.90;;;;;;6212357;23;20021;-87
2023/07/12 01:27:01;;;;;;;1313.30;686.67;;;18.20;99.90;;;;;;6212587;23;20016;-87
2023/07/12 01:29:27;;;;;;;1307.82;603.47;;;18.20;99.90;;;;;;6187375;23;20079;-87
2023/07/12 01:31:54;;;;;;;1291.50;680.90;;;18.20;99.90;;;;;;6261992;22;20022;-88
2023/07/12 01:34:22;;;;;;;1135.80;704.55;;;18.20;99.90;;;;;;6310771;22;20025;-87
2023/07/12 01:36:48;;;;;;;1090.35;566.97;;;18.10;99.90;;;;;;6310468;22;20015;-87
2023/07/12 01:39:14;;;;;;;1284.72;689.35;;;18.10;99.90;;;;;;6310293;22;20014;-87
2023/07/12 01:41:40;;;;;;;1330.50;662.23;;;18.10;99.90;;;;;;6338276;22;20022;-87
2023/07/12 01:44:06;;;;;;;1317.67;667.70;;;18.00;99.90;;;;;;6337724;22;20033;-87
2023/07/12 01:46:32;;;;;;;1312.83;649.30;;;18.00;99.90;;;;;;6338187;22;20341;-87
2023/07/12 01:48:58;;;;;;;1342.50;669.60;;;18.00;99.90;;;;;;6310379;22;20019;-88
2023/07/12 01:51:25;;;;;;;1377.00;594.77;;;18.00;99.90;;;;;;6310612;22;20099;-87
2023/07/12 01:53:51;;;;;;;1381.17;608.80;;;18.00;99.90;;;;;;6310328;22;20479;-88
2023/07/12 01:56:17;;;;;;;1340.53;674.70;;;17.90;99.90;;;;;;6338010;22;20078;-88
2023/07/12 01:58:43;;;;;;;1407.10;599.60;;;17.90;99.90;;;;;;6310145;22;20341;-87
2023/07/12 02:01:09;;;;;;;1329.50;650.17;;;17.90;99.90;;;;;;6338407;22;20528;-88
2023/07/12 02:03:34;;;;;;;1405.67;594.30;;;17.90;99.90;;;;;;6310645;22;20046;-87
2023/07/12 02:06:01;;;;;;;1381.40;595.57;;;17.80;99.90;;;;;;6312495;22;20018;-87
2023/07/12 02:08:26;;;;;;;1358.30;600.20;;;17.80;99.90;;;;;;6312421;22;20026;-87
2023/07/12 02:10:52;;;;;;;1303.65;672.30;;;17.80;99.90;;;;;;6286465;22;20021;-87
2023/07/12 02:13:22;;;;;;;1298.65;670.17;;;17.70;99.90;;;;;;6339761;22;20068;-87
2023/07/12 02:15:48;;;;;;;1287.15;669.05;;;17.70;99.90;;;;;;6340110;22;20366;-86
2023/07/12 02:18:14;;;;;;;1316.00;598.05;;;17.70;99.90;;;;;;6312214;22;20442;-86
2023/07/12 02:20:40;;;;;;;1300.47;668.35;;;17.60;99.90;;;;;;6340004;22;20011;-87
2023/07/12 02:23:07;;;;;;;1354.32;598.50;;;17.70;99.90;;;;;;6339804;22;20065;-87
2023/07/12 02:25:32;;;;;;;1355.88;599.63;;;17.70;99.90;;;;;;6340154;22;20387;-86
2023/07/12 02:27:58;;;;;;;1349.07;592.13;;;17.60;99.90;;;;;;6339778;22;20098;-87
2023/07/12 02:30:26;;;;;;;1299.07;660.37;;;17.60;99.90;;;;;;6340106;22;20092;-88
2023/07/12 02:32:53;;;;;;;1301.70;651.03;;;17.60;99.90;;;;;;6312055;22;20023;-87
2023/07/12 02:35:20;;;;;;;1318.82;593.85;;;17.50;99.90;;;;;;6340027;22;20358;-87
2023/07/12 02:37:47;;;;;;;1337.82;595.50;;;17.50;99.90;;;;;;6312378;22;20050;-87
2023/07/12 02:40:13;;;;;;;1292.83;653.03;;;17.50;99.90;;;;;;6311888;22;20434;-87
2023/07/12 02:42:39;;;;;;;1297.00;646.20;;;17.50;99.90;;;;;;6312033;22;20023;-87
2023/07/12 02:45:07;;;;;;;1303.90;663.63;;;17.50;99.90;;;;;;6339945;22;20019;-87
2023/07/12 02:47:33;;;;;;;1307.20;672.50;;;17.50;99.90;;;;;;6339903;22;20018;-86
2023/07/12 02:49:59;;;;;;;1354.05;595.10;;;17.50;99.90;;;;;;6339850;22;20025;-88
2023/07/12 02:52:24;;;;;;;1346.63;588.28;;;17.40;99.90;;;;;;6339982;22;20021;-87
2023/07/12 02:54:50;;;;;;;1347.32;591.25;;;17.40;99.90;;;;;;6339954;22;20041;-87
2023/07/12 02:57:17;;;;;;;1303.45;654.28;;;17.40;99.90;;;;;;6340183;22;20426;-88
2023/07/12 02:59:43;;;;;;;1348.10;585.20;;;17.40;99.90;;;;;;6312149;22;20030;-86
2023/07/12 03:02:11;;;;;;;1344.05;596.97;;;17.30;99.90;;;;;;6312056;22;20116;-85
2023/07/12 03:04:37;;;;;;;1305.80;664.20;;;17.30;99.90;;;;;;6339743;22;20364;-85
2023/07/12 03:07:03;;;;;;;1248.75;580.05;;;17.30;99.90;;;;;;6312003;22;20022;-85
2023/07/12 03:09:29;;;;;;;1315.47;678.53;;;17.30;99.90;;;;;;6311793;22;20389;-86
2023/07/12 03:11:55;;;;;;;1305.68;667.97;;;17.30;99.90;;;;;;6339722;22;20023;-87
2023/07/12 03:14:21;;;;;;;1272.97;587.35;;;17.20;99.90;;;;;;6338934;22;20019;-88
2023/07/12 03:16:47;;;;;;;1194.55;564.63;;;17.20;99.90;;;;;;6311603;22;20407;-88
2023/07/12 03:19:16;;;;;;;1245.47;683.08;;;17.20;99.90;;;;;;6311751;22;20019;-87
2023/07/12 03:21:42;;;;;;;1131.20;555.00;;;17.10;99.90;;;;;;6339712;22;20262;-87
2023/07/12 03:24:08;;;;;;;1247.85;685.03;;;17.20;99.90;;;;;;6311775;22;20076;-87
2023/07/12 03:26:35;;;;;;;1086.30;545.47;;;17.20;99.90;;;;;;6339645;22;20015;-88
2023/07/12 03:29:01;;;;;;;1071.15;673.45;;;17.20;99.90;;;;;;6311811;22;20023;-88
2023/07/12 03:31:31;;;;;;;948.65;526.50;;;17.20;99.90;;;;;;6338904;22;20029;-88
2023/07/12 03:33:58;;;;;;;858.78;504.85;;;17.20;99.90;;;;;;6310997;22;20026;-88
2023/07/12 03:36:29;;;;;;;789.60;650.97;;;17.20;99.90;;;;;;6311384;22;20026;-90
2023/07/12 03:38:56;;;;;;;944.58;658.58;;;17.20;99.90;;;;;;6312062;22;20530;-90
2023/07/12 03:41:22;;;;;;;1186.13;684.28;;;17.20;99.90;;;;;;6312721;22;20018;-88
2023/07/12 03:43:48;;;;;;;506.85;411.58;;;17.10;99.90;;;;;;6339217;22;20007;-90
2023/07/12 03:46:14;;;;;;;914.33;647.35;;;17.10;99.90;;;;;;6340117;22;20050;-89
2023/07/12 03:48:40;;;;;;;794.08;640.83;;;17.10;99.90;;;;;;6315877;22;20010;-89
2023/07/12 03:51:08;;;;;;;911.17;518.22;;;17.10;99.90;;;;;;6315717;22;20050;-89
2023/07/12 03:53:36;;;;;;;1137.80;667.58;;;17.10;99.90;;;;;;6346208;22;20051;-88
2023/07/12 03:56:01;;;;;;;1170.78;655.67;;;17.10;99.90;;;;;;6315886;22;20025;-90
2023/07/12 03:58:30;;;;;;;1042.35;644.95;;;17.10;99.90;;;;;;6311747;22;20015;-91
2023/07/12 04:00:56;;;;;;;897.30;652.08;;;17.10;99.90;;;;;;6315048;22;20018;-87
2023/07/12 04:03:22;;;;;;;806.45;479.30;;;17.00;99.90;;;;;;6344440;22;20065;-86
2023/07/12 04:05:51;;;;;;;704.28;466.67;;;17.10;99.90;;;;;;6342606;22;20014;-89
2023/07/12 04:08:17;;;;;;;853.85;638.00;;;17.10;99.90;;;;;;6312590;22;20072;-87
2023/07/12 04:10:43;;;;;;;622.55;451.35;;;17.10;99.90;;;;;;6339027;22;20080;-89
2023/07/12 04:13:08;;;;;;;718.65;474.80;;;17.10;99.90;;;;;;6285584;22;20018;-87
2023/07/12 04:15:36;;;;;;;742.40;655.25;;;17.10;99.90;;;;;;6339527;22;20033;-89
2023/07/12 04:18:03;;;;;;;721.60;646.60;;;17.00;99.90;;;;;;6312255;22;20010;-90
2023/07/12 04:20:30;;;;;;;632.15;458.27;;;17.10;99.90;;;;;;6339415;22;20082;-89
2023/07/12 04:22:55;;;;;;;700.20;632.50;;;17.00;99.90;;;;;;6339838;22;20037;-90
2023/07/12 04:32:47;;;;;;;449.77;402.42;;;17.10;99.90;;;;;;6339578;22;20029;-90
2023/07/12 04:35:14;;;;;;;494.33;417.83;;;17.10;99.90;;;;;;6313141;22;20465;-87
2023/07/12 04:37:48;;;;;;;545.58;431.13;;;17.10;99.90;;;;;;6314769;22;20025;-89
2023/07/12 04:40:14;;;;;;;701.38;633.60;;;17.10;99.90;;;;;;6313835;22;20022;-87
2023/07/12 04:42:40;;;;;;;714.15;632.13;;;17.10;99.90;;;;;;6315255;22;20014;-88
2023/07/12 04:45:09;;;;;;;576.55;527.95;;;17.10;99.90;;;;;;6343419;22;20011;-90
2023/07/12 04:47:35;;;;;;;309.23;276.95;;;17.10;99.90;;;;;;6315063;22;20014;-90
2023/07/12 04:50:00;;;;;;;404.88;361.35;;;17.10;99.90;;;;;;6312923;22;20030;-88
2023/07/12 04:52:26;;;;;;;748.60;634.50;;;17.10;99.90;;;;;;6311451;22;20019;-88
2023/07/12 04:54:57;;;;;;;856.38;504.30;;;17.10;99.90;;;;;;6311599;22;20026;-89
2023/07/12 04:57:23;;;;;;;871.13;506.50;;;17.10;99.90;;;;;;6339018;22;20046;-89
2023/07/12 04:59:48;;;;;;;688.88;441.45;;;17.10;99.90;;;;;;6312410;22;20014;-89
2023/07/12 05:02:14;;;;;;;683.58;616.00;;;17.10;99.90;;;;;;6338964;22;20011;-88
2023/07/12 05:04:40;;;;;;;510.60;420.33;;;17.10;99.90;;;;;;6311979;22;20018;-88
2023/07/12 05:07:09;;;;;;;576.92;439.40;;;17.00;99.90;;;;;;6311610;22;20543;-88
2023/07/12 05:09:36;;;;;;;725.00;646.90;;;17.00;99.90;;;;;;6339258;22;20026;-87
2023/07/12 05:12:02;;;;;;;714.50;639.50;;;17.10;99.90;;;;;;6310880;22;20035;-88
2023/07/12 05:14:27;;;;;;;444.25;368.35;;;17.10;99.90;;;;;;6311291;22;20337;-86
2023/07/12 05:16:53;;;;;;;648.22;594.58;;;17.20;99.90;;;;;;6310710;22;20023;-86
2023/07/12 05:19:19;;;;;;;648.28;595.97;;;17.20;99.90;;;;;;6286446;22;20011;-86
2023/07/12 05:21:45;;;;;;;365.58;337.38;;;17.30;99.90;;;;;;6340019;22;20071;-85
2023/07/12 05:24:10;;;;;;;396.40;361.83;;;17.30;99.90;;;;;;6311346;22;20474;-86
2023/07/12 05:26:36;;;;;;;463.80;405.30;;;17.40;99.90;;;;;;6311475;22;20076;-87
2023/07/12 05:29:03;;;;;;;675.45;613.95;;;17.40;99.90;;;;;;6339243;22;20027;-86
2023/07/12 05:31:28;;;;;;;381.63;351.95;;;17.50;99.90;;;;;;6312328;22;20030;-86
2023/07/12 05:33:54;;;;;;;489.50;457.52;;;17.60;99.90;;;;;;6312211;22;20019;-85
2023/07/12 05:36:20;;;;;;;260.77;243.15;;;17.70;99.90;;;;;;6339206;22;20345;-86
2023/07/12 05:38:46;;;;;;;90.13;84.82;;;17.70;99.90;;;;;;6339338;22;20333;-85
2023/07/12 05:41:12;;;;;;;205.70;194.75;;;17.70;99.90;;;;;;6287929;22;20030;-87
2023/07/12 05:43:39;;;;;;;600.35;558.90;;;17.80;99.90;;;;;;6319786;22;20071;-87
2023/07/12 05:46:06;;;;;;;547.38;512.65;;;17.80;99.90;;;;;;6324686;22;20014;-84
2023/07/12 05:48:31;;;;;;;213.43;200.63;;;17.90;99.90;;;;;;6353265;22;20015;-87
2023/07/12 05:50:59;;;;;;;225.30;209.90;;;18.00;99.90;;;;;;6350502;22;20086;-86
2023/07/12 05:53:25;;;;;;;142.32;131.95;;;18.10;99.90;;;;;;6328213;22;20047;-87
2023/07/12 05:55:55;;;;;;;30.92;28.38;;;18.10;99.90;;;;;;6329662;22;20040;-87
2023/07/12 05:58:24;;;;;;;73.15;67.80;;;18.20;99.90;;;;;;6329270;22;20039;-88
2023/07/12 06:00:55;;;;;;;61.70;57.78;;;18.20;99.90;;;;;;6329045;22;20409;-86
2023/07/12 06:03:25;;;;;;;488.48;458.85;;;18.30;99.90;;;;;;6329959;22;20018;-92
2023/07/12 06:05:52;;;;;;;647.78;596.08;;;18.40;99.90;;;;;;6357096;22;20011;-88
2023/07/12 06:08:18;;;;;;;286.23;271.55;;;18.50;99.90;;;;;;6329837;22;20019;-89
2023/07/12 06:10:52;;;;;;;135.80;126.63;;;18.40;99.90;;;;;;6327954;22;20070;-90
2023/07/12 06:13:24;;;;;;;10.57;4.40;;;18.50;99.90;;;;;;6327184;22;20015;-90
2023/07/12 06:15:50;;;;;;;7.30;1.25;;;18.60;99.90;;;;;;6326182;22;20044;-88
2023/07/12 06:18:16;;;;;;;4.38;1.25;;;18.70;99.90;;;;;;6326362;22;20011;-89
2023/07/12 06:20:41;;;;;;;7.80;1.70;;;18.90;99.90;;;;;;6360891;22;20557;-89
2023/07/12 06:23:07;;;;;;;116.60;92.40;;;18.90;99.90;;;;;;6358924;22;20007;-88
2023/07/12 06:25:33;;;;;;;5.13;1.50;;;18.90;99.90;;;;;;6349153;22;20062;-85
2023/07/12 06:27:58;;;;;;;5.95;1.25;;;19.10;99.90;;;;;;6323045;22;20093;-83
2023/07/12 06:30:27;;;;;;;6.55;1.95;;;18.90;99.90;;;;;;6331209;22;20029;-86
2023/07/12 06:32:53;;;;;;;9.23;2.08;;;18.90;99.90;;;;;;6341914;22;20094;-84
2023/07/12 06:35:18;;;;;;;9.55;1.73;;;18.90;99.90;;;;;;6339911;22;20042;-85
2023/07/12 06:37:44;;;;;;;9.35;1.58;;;18.90;99.90;;;;;;6286724;22;20046;-85
2023/07/12 06:40:10;;;;;;;10.18;1.88;;;19.10;99.90;;;;;;6339530;22;20049;-86
2023/07/12 06:42:36;;;;;;;5.38;1.50;;;19.20;99.90;;;;;;6313557;22;20019;-86
2023/07/12 06:45:02;;;;;;;120.68;113.05;;;19.20;99.90;;;;;;6340615;22;20018;-85
2023/07/12 06:47:28;;;;;;;944.42;553.72;;;19.20;99.90;;;;;;6339161;22;20468;-86
2023/07/12 06:49:54;;;;;;;11.30;2.42;;;19.10;99.90;;;;;;6339629;22;20050;-83
2023/07/12 06:52:20;;;;;;;854.17;638.15;;;19.10;99.90;;;;;;6341457;22;20028;-82
2023/07/12 06:54:46;;;;;;;1224.40;610.72;;;19.10;99.90;;;;;;6314357;22;20011;-84
2023/07/12 06:57:12;;;;;;;1337.32;607.75;;;19.30;99.90;;;;;;6342590;22;20438;-83
2023/07/12 06:59:38;;;;;;;1309.60;714.85;;;19.40;99.90;;;;;;6343245;22;20015;-83
2023/07/12 07:02:03;;;;;;;1310.63;705.83;;;19.50;99.90;;;;;;6341410;22;20015;-83
2023/07/12 07:04:29;;;;;;;876.28;548.67;;;19.60;99.90;;;;;;6341088;22;20344;-84
2023/07/12 07:06:55;;;;;;;909.97;556.25;;;19.70;99.90;;;;;;6340357;22;20021;-83
2023/07/12 07:09:20;;;;;;;550.20;472.67;;;19.90;99.90;;;;;;6340232;22;20015;-83
2023/07/12 07:11:46;;;;;;;1312.37;614.73;;;20.10;99.90;;;;;;6340291;22;20433;-83
2023/07/12 07:14:12;;;;;;;1339.40;617.13;;;20.30;99.90;;;;;;6311505;22;20018;-87
2023/07/12 07:16:38;;;;;;;1302.50;694.13;;;20.40;99.90;;;;;;6313079;22;20050;-85
2023/07/12 07:19:03;;;;;;;935.58;606.78;;;20.40;99.90;;;;;;6340464;22;20348;-84
2023/07/12 07:21:29;;;;;;;1138.15;598.67;;;20.30;99.90;;;;;;6313533;22;20046;-84
2023/07/12 07:23:55;;;;;;;940.10;760.63;;;20.40;99.90;;;;;;6312951;22;20099;-84
2023/07/12 07:26:20;;;;;;;10.02;1.63;;;20.30;99.90;;;;;;6340565;22;20010;-87
2023/07/12 07:28:47;;;;;;;6.32;1.13;;;20.50;99.90;;;;;;6315929;22;20026;-83
2023/07/12 07:31:12;;;;;;;21.40;18.35;;;20.60;99.90;;;;;;6320164;22;20011;-87
2023/07/12 07:33:41;;;;;;;736.35;670.30;;;20.70;99.90;;;;;;6322301;22;20025;-91
2023/07/12 07:36:10;;;;;;;7.60;1.77;;;21.00;99.90;;;;;;6324810;22;20010;-87
2023/07/12 07:41:57;;;;;;;1299.57;619.58;;;21.10;99.90;;;;;;6152339;23;20021;-90
2023/07/12 07:44:46;;;;;;;1363.28;632.38;;;21.10;99.90;;;;;;6171279;23;20463;-93
2023/07/12 07:48:04;;;;;;;1317.80;767.08;;;21.10;99.90;;;;;;6029593;23;20015;-91
2023/07/12 07:51:12;;;;;;;1312.68;637.17;;;21.20;99.90;;;;;;5927687;24;20095;-92
2023/07/12 07:53:48;;;;;;;6.60;1.10;;;21.50;99.90;;;;;;5941831;24;20020;-91
2023/07/12 07:56:13;;;;;;;937.97;578.88;;;21.70;99.90;;;;;;5933974;24;20108;-88
2023/07/12 07:58:40;;;;;;;1236.68;801.30;;;21.70;99.90;;;;;;5931486;24;20480;-89
2023/07/12 08:01:05;;;;;;;1239.90;791.53;;;21.50;99.90;;;;;;5953613;24;20017;-88
2023/07/12 08:03:32;;;;;;;1247.55;789.85;;;21.30;99.90;;;;;;5953576;24;20032;-86
2023/07/12 08:06:02;;;;;;;1247.82;784.63;;;21.20;99.90;;;;;;5955300;24;20024;-85
2023/07/12 08:08:29;;;;;;;1097.78;600.10;;;21.20;99.90;;;;;;5954790;24;20024;-85
2023/07/12 08:14:26;;;;;;;1327.22;781.65;;;21.20;99.90;;;;;;5954011;24;20030;-85
2023/07/12 08:16:52;;;;;;;1283.63;765.85;;;21.20;99.90;;;;;;5938404;23;20104;-87
2023/07/12 08:19:18;;;;;;;1339.03;640.33;;;21.20;99.90;;;;;;6043749;23;20450;-85
2023/07/12 08:21:44;;;;;;;1340.88;643.45;;;21.20;99.90;;;;;;6046839;23;20029;-86
2023/07/12 08:28:43;;;;;;;977.15;589.00;;;21.30;99.90;;;;;;6340163;22;20063;-84
2023/07/12 08:31:08;;;;;;;1353.82;779.47;;;21.50;99.90;;;;;;6285150;22;20041;-84
2023/07/12 08:33:34;;;;;;;1034.38;700.75;;;21.10;99.90;;;;;;6310664;22;20023;-87
2023/07/12 08:36:00;;;;;;;779.65;681.08;;;21.10;99.90;;;;;;6311302;22;20090;-85
2023/07/12 08:38:31;;;;;;;1191.75;735.05;;;21.10;99.90;;;;;;6311393;22;20046;-86
2023/07/12 08:40:58;;;;;;;900.10;573.47;;;21.00;99.90;;;;;;6311368;22;20026;-85
2023/07/12 08:43:32;;;;;;;805.58;532.08;;;20.80;99.90;;;;;;6311103;22;20049;-84
2023/07/12 08:46:21;;;;;;;895.23;809.63;;;20.90;99.90;;;;;;6311284;22;20148;-86
2023/07/12 08:48:51;;;;;;;1077.03;654.40;;;21.10;99.90;;;;;;6311526;22;20018;-90
2023/07/12 08:51:32;;;;;;;1279.57;639.67;;;21.20;99.90;;;;;;6339535;22;20015;-86
2023/07/12 08:53:58;;;;;;;1294.50;757.42;;;21.40;99.90;;;;;;6339213;22;20068;-88
2023/07/12 08:56:26;;;;;;;1278.35;757.75;;;21.60;99.90;;;;;;6311492;22;20022;-86
2023/07/12 08:58:53;;;;;;;1365.63;641.78;;;21.80;99.90;;;;;;6311401;22;20409;-86
2023/07/12 09:01:32;;;;;;;1316.32;634.90;;;21.80;99.90;;;;;;6339152;22;20029;-85
2023/07/12 09:03:58;;;;;;;1375.53;644.38;;;21.80;99.90;;;;;;6311072;22;20399;-86
2023/07/12 09:06:24;;;;;;;1311.88;766.80;;;21.80;99.90;;;;;;6311135;22;20019;-85
2023/07/12 09:08:53;;;;;;;1324.45;636.80;;;21.80;99.90;;;;;;6311104;22;20030;-85
2023/07/12 09:11:27;;;;;;;1313.15;762.42;;;21.80;99.90;;;;;;6310857;22;20011;-85
2023/07/12 09:13:55;;;;;;;1288.97;764.93;;;22.00;99.90;;;;;;6310383;22;20019;-86
2023/07/12 09:16:34;;;;;;;1291.70;765.33;;;21.90;99.90;;;;;;6311524;22;20075;-84
2023/07/12 09:19:15;;;;;;;1300.43;759.35;;;22.00;99.90;;;;;;6339034;22;20015;-84
2023/07/12 09:21:47;;;;;;;1340.00;641.15;;;22.20;99.90;;;;;;6338673;22;20017;-83
2023/07/12 09:24:19;;;;;;;1278.50;770.60;;;22.20;99.90;;;;;;6311373;22;20018;-83
2023/07/12 09:26:44;;;;;;;1276.97;762.00;;;22.30;99.90;;;;;;6311178;22;20019;-82
2023/07/12 09:29:22;;;;;;;1287.57;778.77;;;22.40;99.90;;;;;;6310703;22;20022;-83
2023/07/12 09:31:49;;;;;;;1304.90;648.30;;;22.70;99.90;;;;;;6339284;22;20022;-82
2023/07/12 09:34:22;;;;;;;1272.37;766.33;;;23.00;99.90;;;;;;6338558;22;20011;-83
2023/07/12 09:36:57;;;;;;;1263.20;762.57;;;23.10;99.90;;;;;;6285378;22;20026;-85
2023/07/12 09:39:23;;;;;;;1288.90;643.67;;;23.00;99.90;;;;;;6288131;22;20013;-84
2023/07/12 09:41:51;;;;;;;1257.43;765.63;;;23.10;99.90;;;;;;6312601;22;20438;-83
2023/07/12 09:44:17;;;;;;;1267.27;765.83;;;23.00;99.90;;;;;;6339275;22;20011;-83
2023/07/12 09:46:57;;;;;;;1365.03;656.17;;;22.90;99.90;;;;;;6338867;22;20445;-83
2023/07/12 09:49:32;;;;;;;1260.17;765.87;;;22.80;99.90;;;;;;6339985;22;20038;-83
2023/07/12 09:52:08;;;;;;;1267.83;779.40;;;22.80;99.90;;;;;;6285084;22;20023;-84
2023/07/12 09:55:08;;;;;;;1298.33;671.53;;;23.00;99.90;;;;;;6310785;22;20769;-83
2023/07/12 09:57:54;;;;;;;1258.50;762.70;;;23.30;99.90;;;;;;6182157;23;20079;-83
2023/07/12 10:00:29;;;;;;;1338.00;821.78;;;23.60;99.90;;;;;;6182366;23;20021;-83
2023/07/12 10:03:05;;;;;;;1285.70;652.63;;;23.90;99.90;;;;;;6157776;23;20060;-84
2023/07/12 10:05:31;;;;;;;1266.60;789.67;;;23.80;99.90;;;;;;6182306;23;20017;-83
2023/07/12 10:08:04;;;;;;;1297.40;658.85;;;23.70;99.90;;;;;;6181979;23;20017;-83
2023/07/12 10:10:51;;;;;;;1266.07;793.63;;;23.50;99.90;;;;;;6182177;23;20017;-84
2023/07/12 10:13:33;;;;;;;1274.60;801.92;;;23.50;99.90;;;;;;6182373;23;20413;-84
2023/07/12 10:16:01;;;;;;;1283.65;806.75;;;23.80;99.90;;;;;;6182636;23;20017;-84
2023/07/12 10:18:32;;;;;;;1306.30;668.45;;;24.20;99.90;;;;;;6157250;23;20021;-84
2023/07/12 10:20:59;;;;;;;1286.25;812.53;;;24.50;99.90;;;;;;6157420;23;20107;-83
2023/07/12 10:23:30;;;;;;;1284.70;815.08;;;24.50;99.90;;;;;;6182329;23;20163;-84
2023/07/12 10:26:00;;;;;;;1282.68;812.50;;;24.50;99.90;;;;;;6183779;23;20019;-83
2023/07/12 10:28:34;;;;;;;1287.32;820.70;;;24.60;99.90;;;;;;6159126;23;20017;-83
2023/07/12 10:31:08;;;;;;;1285.05;810.78;;;24.50;99.90;;;;;;6184244;23;20170;-83
2023/07/12 10:33:42;;;;;;;1322.55;672.05;;;24.40;99.90;;;;;;6243575;22;20025;-84
2023/07/12 10:36:15;;;;;;;1338.03;680.40;;;24.60;99.90;;;;;;6340593;22;20390;-87
2023/07/12 10:38:41;;;;;;;1329.60;687.92;;;24.80;99.90;;;;;;6341276;22;20051;-86
2023/07/12 10:41:28;;;;;;;1287.00;825.47;;;24.90;99.90;;;;;;6314017;22;20030;-91
2023/07/12 10:44:06;;;;;;;1319.72;680.55;;;24.70;99.90;;;;;;6341003;22;20018;-86
2023/07/12 10:46:39;;;;;;;1311.55;677.40;;;24.30;99.90;;;;;;6342741;22;20019;-85
2023/07/12 10:49:19;;;;;;;1311.18;673.72;;;24.20;99.90;;;;;;6317268;22;20072;-86
2023/07/12 10:52:11;;;;;;;1279.30;816.15;;;24.00;99.90;;;;;;6315651;22;20043;-89
2023/07/12 10:54:42;;;;;;;1281.23;823.03;;;24.20;99.90;;;;;;6315561;22;20014;-89
2023/07/12 10:57:42;;;;;;;1312.65;679.53;;;24.50;99.90;;;;;;6314377;22;20085;-86
2023/07/12 11:00:17;;;;;;;1314.30;674.35;;;24.90;99.90;;;;;;6185164;23;20017;-86
2023/07/12 11:02:59;;;;;;;1278.45;813.40;;;24.70;99.90;;;;;;6161530;23;20017;-89
2023/07/12 11:05:43;;;;;;;1282.93;823.53;;;24.70;99.90;;;;;;6139142;23;20021;-85
2023/07/12 11:08:30;;;;;;;1279.30;817.80;;;24.90;99.90;;;;;;6141669;23;20053;-87
2023/07/12 11:11:08;;;;;;;1282.30;821.23;;;24.70;99.90;;;;;;6188609;23;20147;-88
2023/07/12 11:13:42;;;;;;;1297.47;670.37;;;24.30;99.90;;;;;;6167277;23;20440;-89
2023/07/12 11:16:15;;;;;;;1310.57;668.87;;;24.10;99.90;;;;;;6194232;23;20072;-86
2023/07/12 11:18:50;;;;;;;1271.63;804.00;;;24.40;99.90;;;;;;6170876;23;20028;-86
2023/07/12 11:21:47;;;;;;;1282.60;822.25;;;24.80;99.90;;;;;;6164491;23;20021;-90
2023/07/12 11:24:31;;;;;;;1278.57;818.93;;;25.10;99.90;;;;;;6162957;23;20025;-87
2023/07/12 11:26:59;;;;;;;1282.50;826.33;;;25.00;99.90;;;;;;6190100;23;20021;-86
2023/07/12 11:29:29;;;;;;;1273.60;815.83;;;25.20;99.90;;;;;;6192231;23;20020;-87
2023/07/12 11:32:30;;;;;;;1309.57;674.07;;;25.30;99.90;;;;;;6197381;23;20547;-87
2023/07/12 11:35:20;;;;;;;1278.23;823.13;;;25.00;99.90;;;;;;6173566;23;20028;-87
2023/07/12 11:37:54;;;;;;;1279.00;815.90;;;25.20;99.90;;;;;;6306982;22;20075;-86
2023/07/12 11:40:29;;;;;;;1305.93;672.90;;;25.60;99.90;;;;;;6346154;22;20007;-85
2023/07/12 11:42:55;;;;;;;1308.50;675.67;;;25.40;98.90;;;;;;6314620;22;20015;-92
2023/07/12 11:45:22;;;;;;;1267.80;808.37;;;25.10;98.10;;;;;;6341847;22;20120;-89
2023/07/12 11:47:53;;;;;;;1303.67;656.87;;;24.80;99.90;;;;;;6341089;22;20010;-84
2023/07/12 11:50:25;;;;;;;1265.43;803.77;;;24.70;99.40;;;;;;6341821;22;20025;-84
2023/07/12 11:52:52;;;;;;;1294.53;655.40;;;24.60;99.90;;;;;;6340354;22;20498;-83
2023/07/12 11:55:26;;;;;;;1282.40;644.20;;;24.50;99.90;;;;;;6342113;22;20072;-88
2023/07/12 11:57:52;;;;;;;1250.10;786.87;;;24.40;99.90;;;;;;6340052;22;20011;-83
2023/07/12 12:00:24;;;;;;;1284.07;641.30;;;24.50;99.90;;;;;;6339412;22;20058;-84
2023/07/12 12:02:55;;;;;;;1284.00;800.07;;;24.70;99.90;;;;;;6339460;22;20464;-84
2023/07/12 12:05:27;;;;;;;1274.07;799.90;;;24.60;99.90;;;;;;6311261;22;20014;-85
2023/07/12 12:07:55;;;;;;;1300.50;649.20;;;24.50;99.90;;;;;;6312524;22;20444;-85
2023/07/12 12:17:46;;;;;;;1253.83;777.37;;;24.60;99.90;;;;;;6339648;22;20049;-84
2023/07/12 12:20:19;;;;;;;1284.27;644.67;;;24.80;99.20;;;;;;6286096;22;20019;-85
2023/07/12 12:23:10;;;;;;;1276.27;642.07;;;24.70;99.20;;;;;;6312058;22;20053;-84
2023/07/12 12:25:47;;;;;;;1294.43;647.80;;;25.00;98.80;;;;;;6311281;22;20057;-86
2023/07/12 12:28:27;;;;;;;1285.17;643.13;;;25.50;99.20;;;;;;6345032;22;20022;-88
2023/07/12 12:31:14;;;;;;;1278.43;643.13;;;25.60;98.90;;;;;;6315669;22;20034;-89
2023/07/12 12:33:58;;;;;;;1244.20;781.00;;;25.20;98.20;;;;;;6314801;22;20019;-89
2023/07/12 12:36:27;;;;;;;1274.13;642.53;;;25.30;98.20;;;;;;6343137;22;20097;-88
2023/07/12 12:38:58;;;;;;;1270.93;642.27;;;25.40;98.00;;;;;;6316517;22;20015;-84
2023/07/12 12:41:34;;;;;;;1244.57;785.47;;;25.50;98.20;;;;;;6345952;22;20097;-86
2023/07/12 12:44:31;;;;;;;1269.33;651.07;;;25.50;98.20;;;;;;6314494;22;20369;-83
2023/07/12 12:46:59;;;;;;;1274.93;647.47;;;25.60;98.60;;;;;;6158134;23;20058;-83